sensor_id;sensor_type;location;lat;lon;timestamp;pressure;altitude;pressure_sealevel;temperature;humidity
55755;BME280;41674;52.290;-1.474;2023-02-12T00:01:19;103159.22;;;9.06;72.29
55755;BME280;41674;52.290;-1.474;2023-02-12T00:03:42;103150.81;;;10.07;68.83
55755;BME280;41674;52.290;-1.474;2023-02-12T00:06:12;103150.18;;;10.01;68.37
55755;BME280;41674;52.290;-1.474;2023-02-12T00:08:41;103154.58;;;9.91;68.53
55755;BME280;41674;52.290;-1.474;2023-02-12T00:11:13;103158.43;;;9.82;67.97
55755;BME280;41674;52.290;-1.474;2023-02-12T00:13:40;103162.88;;;10.35;67.86
55755;BME280;41674;52.290;-1.474;2023-02-12T00:16:12;103161.23;;;9.88;69.61
55755;BME280;41674;52.290;-1.474;2023-02-12T00:18:44;103153.81;;;10.04;68.63
55755;BME280;41674;52.290;-1.474;2023-02-12T00:21:09;103153.02;;;10.09;68.62
55755;BME280;41674;52.290;-1.474;2023-02-12T00:23:38;103155.68;;;10.02;68.99
55755;BME280;41674;52.290;-1.474;2023-02-12T00:26:08;103148.94;;;10.07;68.87
55755;BME280;41674;52.290;-1.474;2023-02-12T00:28:37;103149.91;;;9.85;69.37
55755;BME280;41674;52.290;-1.474;2023-02-12T00:31:08;103149.34;;;10.14;69.37
55755;BME280;41674;52.290;-1.474;2023-02-12T00:33:41;103152.85;;;9.91;69.22
55755;BME280;41674;52.290;-1.474;2023-02-12T00:36:07;103148.45;;;9.82;69.29
55755;BME280;41674;52.290;-1.474;2023-02-12T00:38:35;103144.25;;;10.18;68.72
55755;BME280;41674;52.290;-1.474;2023-02-12T00:41:05;103155.13;;;9.30;69.83
55755;BME280;41674;52.290;-1.474;2023-02-12T00:43:35;103151.40;;;9.80;69.17
55755;BME280;41674;52.290;-1.474;2023-02-12T00:46:04;103146.70;;;9.66;69.32
55755;BME280;41674;52.290;-1.474;2023-02-12T00:48:34;103148.90;;;9.91;69.63
55755;BME280;41674;52.290;-1.474;2023-02-12T00:51:05;103150.41;;;9.97;69.48
55755;BME280;41674;52.290;-1.474;2023-02-12T00:53:33;103151.15;;;10.16;69.24
55755;BME280;41674;52.290;-1.474;2023-02-12T00:56:02;103149.98;;;10.12;69.00
55755;BME280;41674;52.290;-1.474;2023-02-12T00:58:31;103149.25;;;9.90;68.99
55755;BME280;41674;52.290;-1.474;2023-02-12T01:01:00;103150.17;;;9.95;68.91
55755;BME280;41674;52.290;-1.474;2023-02-12T01:03:30;103149.92;;;10.21;68.86
55755;BME280;41674;52.290;-1.474;2023-02-12T01:06:00;103153.25;;;10.02;68.89
55755;BME280;41674;52.290;-1.474;2023-02-12T01:08:29;103160.47;;;9.97;69.05
55755;BME280;41674;52.290;-1.474;2023-02-12T01:11:00;103160.73;;;10.12;69.25
55755;BME280;41674;52.290;-1.474;2023-02-12T01:13:29;103153.24;;;9.96;69.02
55755;BME280;41674;52.290;-1.474;2023-02-12T01:18:27;103161.33;;;9.86;68.86
55755;BME280;41674;52.290;-1.474;2023-02-12T01:20:56;103150.73;;;10.28;68.29
55755;BME280;41674;52.290;-1.474;2023-02-12T01:23:30;103149.19;;;10.24;68.29
55755;BME280;41674;52.290;-1.474;2023-02-12T01:25:57;103158.59;;;10.27;68.29
55755;BME280;41674;52.290;-1.474;2023-02-12T01:28:24;103162.59;;;10.16;68.76
55755;BME280;41674;52.290;-1.474;2023-02-12T01:30:55;103151.95;;;10.12;68.57
55755;BME280;41674;52.290;-1.474;2023-02-12T01:33:23;103157.78;;;9.74;68.95
55755;BME280;41674;52.290;-1.474;2023-02-12T01:35:53;103159.51;;;7.89;75.72
55755;BME280;41674;52.290;-1.474;2023-02-12T01:38:22;103157.07;;;9.27;70.57
55755;BME280;41674;52.290;-1.474;2023-02-12T01:40:51;103150.17;;;9.94;69.14
55755;BME280;41674;52.290;-1.474;2023-02-12T01:43:20;103149.85;;;10.07;68.92
55755;BME280;41674;52.290;-1.474;2023-02-12T01:45:51;103144.88;;;10.19;68.66
55755;BME280;41674;52.290;-1.474;2023-02-12T01:48:22;103143.36;;;9.84;69.65
55755;BME280;41674;52.290;-1.474;2023-02-12T01:50:50;103143.98;;;9.51;69.02
55755;BME280;41674;52.290;-1.474;2023-02-12T01:53:19;103137.61;;;10.03;68.40
55755;BME280;41674;52.290;-1.474;2023-02-12T01:55:50;103133.09;;;9.87;68.00
55755;BME280;41674;52.290;-1.474;2023-02-12T01:58:18;103133.61;;;10.02;68.21
55755;BME280;41674;52.290;-1.474;2023-02-12T02:00:47;103139.29;;;10.23;68.40
55755;BME280;41674;52.290;-1.474;2023-02-12T02:03:16;103137.98;;;9.64;68.81
55755;BME280;41674;52.290;-1.474;2023-02-12T02:05:51;103131.85;;;9.95;68.95
55755;BME280;41674;52.290;-1.474;2023-02-12T02:08:15;103138.18;;;9.77;68.81
55755;BME280;41674;52.290;-1.474;2023-02-12T02:10:45;103142.74;;;10.05;69.35
55755;BME280;41674;52.290;-1.474;2023-02-12T02:13:14;103137.07;;;9.69;68.97
55755;BME280;41674;52.290;-1.474;2023-02-12T02:15:47;103140.28;;;9.81;68.66
55755;BME280;41674;52.290;-1.474;2023-02-12T02:18:18;103142.11;;;10.02;68.57
55755;BME280;41674;52.290;-1.474;2023-02-12T02:21:07;103138.06;;;10.08;68.45
55755;BME280;41674;52.290;-1.474;2023-02-12T02:25:56;103138.03;;;10.10;68.39
55755;BME280;41674;52.290;-1.474;2023-02-12T02:28:22;103143.43;;;10.20;68.38
55755;BME280;41674;52.290;-1.474;2023-02-12T02:30:44;103143.41;;;10.08;68.73
55755;BME280;41674;52.290;-1.474;2023-02-12T02:33:19;103138.45;;;9.92;68.96
55755;BME280;41674;52.290;-1.474;2023-02-12T02:35:44;103135.72;;;9.60;69.32
55755;BME280;41674;52.290;-1.474;2023-02-12T02:38:24;103140.54;;;9.56;69.39
55755;BME280;41674;52.290;-1.474;2023-02-12T02:40:44;103136.31;;;10.24;68.91
55755;BME280;41674;52.290;-1.474;2023-02-12T02:43:13;103132.55;;;10.32;68.64
55755;BME280;41674;52.290;-1.474;2023-02-12T02:45:40;103132.88;;;10.25;68.81
55755;BME280;41674;52.290;-1.474;2023-02-12T02:48:20;103130.23;;;9.98;69.00
55755;BME280;41674;52.290;-1.474;2023-02-12T02:50:41;103131.30;;;9.99;68.79
55755;BME280;41674;52.290;-1.474;2023-02-12T02:53:10;103128.93;;;9.71;68.74
55755;BME280;41674;52.290;-1.474;2023-02-12T02:55:39;103130.11;;;9.78;68.61
55755;BME280;41674;52.290;-1.474;2023-02-12T02:58:08;103132.88;;;9.98;68.49
55755;BME280;41674;52.290;-1.474;2023-02-12T03:00:38;103131.11;;;9.94;68.82
55755;BME280;41674;52.290;-1.474;2023-02-12T03:03:09;103125.50;;;10.18;68.79
55755;BME280;41674;52.290;-1.474;2023-02-12T03:05:38;103132.77;;;9.93;69.46
55755;BME280;41674;52.290;-1.474;2023-02-12T03:08:11;103138.09;;;9.55;69.64
55755;BME280;41674;52.290;-1.474;2023-02-12T03:10:37;103136.57;;;9.36;70.72
55755;BME280;41674;52.290;-1.474;2023-02-12T03:13:07;103129.34;;;9.66;70.00
55755;BME280;41674;52.290;-1.474;2023-02-12T03:15:34;103133.75;;;9.56;69.93
55755;BME280;41674;52.290;-1.474;2023-02-12T03:18:04;103141.00;;;9.70;70.09
55755;BME280;41674;52.290;-1.474;2023-02-12T03:20:35;103135.26;;;9.74;70.14
55755;BME280;41674;52.290;-1.474;2023-02-12T03:23:03;103133.48;;;9.60;69.94
55755;BME280;41674;52.290;-1.474;2023-02-12T03:25:34;103137.13;;;9.69;70.26
55755;BME280;41674;52.290;-1.474;2023-02-12T03:28:05;103134.78;;;9.77;70.08
55755;BME280;41674;52.290;-1.474;2023-02-12T03:30:37;103132.67;;;9.47;70.34
55755;BME280;41674;52.290;-1.474;2023-02-12T03:33:10;103133.23;;;9.59;70.38
55755;BME280;41674;52.290;-1.474;2023-02-12T03:35:31;103139.79;;;9.27;70.95
55755;BME280;41674;52.290;-1.474;2023-02-12T03:38:02;103136.39;;;9.74;70.55
55755;BME280;41674;52.290;-1.474;2023-02-12T03:40:28;103133.15;;;9.57;70.43
55755;BME280;41674;52.290;-1.474;2023-02-12T03:42:59;103139.19;;;9.81;70.30
55755;BME280;41674;52.290;-1.474;2023-02-12T03:45:36;103138.05;;;9.85;70.20
55755;BME280;41674;52.290;-1.474;2023-02-12T03:48:01;103138.09;;;9.14;71.86
55755;BME280;41674;52.290;-1.474;2023-02-12T03:50:29;103136.04;;;9.62;70.55
55755;BME280;41674;52.290;-1.474;2023-02-12T03:52:58;103135.40;;;9.55;70.27
55755;BME280;41674;52.290;-1.474;2023-02-12T03:55:23;103130.37;;;9.55;70.52
55755;BME280;41674;52.290;-1.474;2023-02-12T03:57:54;103130.42;;;9.76;70.45
55755;BME280;41674;52.290;-1.474;2023-02-12T04:00:22;103130.10;;;9.76;70.61
55755;BME280;41674;52.290;-1.474;2023-02-12T04:02:52;103132.00;;;9.75;70.62
55755;BME280;41674;52.290;-1.474;2023-02-12T04:05:23;103131.49;;;9.76;70.38
55755;BME280;41674;52.290;-1.474;2023-02-12T04:07:51;103131.03;;;9.65;70.55
55755;BME280;41674;52.290;-1.474;2023-02-12T04:10:23;103133.69;;;9.64;70.81
55755;BME280;41674;52.290;-1.474;2023-02-12T04:13:00;103139.05;;;9.80;70.46
55755;BME280;41674;52.290;-1.474;2023-02-12T04:15:36;103137.83;;;9.75;70.38
55755;BME280;41674;52.290;-1.474;2023-02-12T04:17:54;103137.37;;;9.77;70.46
55755;BME280;41674;52.290;-1.474;2023-02-12T04:20:25;103144.67;;;9.56;70.24
55755;BME280;41674;52.290;-1.474;2023-02-12T04:22:56;103148.85;;;9.82;70.16
55755;BME280;41674;52.290;-1.474;2023-02-12T04:25:24;103148.73;;;9.22;70.82
55755;BME280;41674;52.290;-1.474;2023-02-12T04:27:51;103147.48;;;9.59;69.90
55755;BME280;41674;52.290;-1.474;2023-02-12T04:30:20;103150.20;;;9.59;70.38
55755;BME280;41674;52.290;-1.474;2023-02-12T04:32:49;103149.38;;;9.73;70.54
55755;BME280;41674;52.290;-1.474;2023-02-12T04:35:21;103145.46;;;9.68;70.52
55755;BME280;41674;52.290;-1.474;2023-02-12T04:37:49;103146.21;;;9.72;70.41
55755;BME280;41674;52.290;-1.474;2023-02-12T04:40:17;103147.83;;;9.45;70.27
55755;BME280;41674;52.290;-1.474;2023-02-12T04:42:45;103145.34;;;9.42;70.07
55755;BME280;41674;52.290;-1.474;2023-02-12T04:45:17;103146.46;;;9.52;70.36
55755;BME280;41674;52.290;-1.474;2023-02-12T04:47:48;103150.62;;;9.53;70.44
55755;BME280;41674;52.290;-1.474;2023-02-12T04:50:13;103152.45;;;9.33;71.02
55755;BME280;41674;52.290;-1.474;2023-02-12T04:52:42;103153.72;;;9.09;71.96
55755;BME280;41674;52.290;-1.474;2023-02-12T04:55:13;103152.13;;;8.85;72.54
55755;BME280;41674;52.290;-1.474;2023-02-12T04:57:41;103151.55;;;9.13;71.82
55755;BME280;41674;52.290;-1.474;2023-02-12T05:00:13;103153.99;;;8.87;72.92
55755;BME280;41674;52.290;-1.474;2023-02-12T05:02:39;103152.99;;;9.11;72.21
55755;BME280;41674;52.290;-1.474;2023-02-12T05:05:10;103148.62;;;9.36;71.64
55755;BME280;41674;52.290;-1.474;2023-02-12T05:07:38;103147.96;;;9.13;71.75
55755;BME280;41674;52.290;-1.474;2023-02-12T05:10:09;103152.26;;;9.31;71.97
55755;BME280;41674;52.290;-1.474;2023-02-12T05:12:37;103155.13;;;9.37;71.61
55755;BME280;41674;52.290;-1.474;2023-02-12T05:15:11;103154.34;;;9.15;72.31
55755;BME280;41674;52.290;-1.474;2023-02-12T05:17:37;103153.69;;;9.33;71.68
55755;BME280;41674;52.290;-1.474;2023-02-12T05:22:35;103142.92;;;7.92;75.42
55755;BME280;41674;52.290;-1.474;2023-02-12T05:25:07;103141.33;;;8.69;72.90
55755;BME280;41674;52.290;-1.474;2023-02-12T05:27:34;103140.07;;;8.99;71.45
55755;BME280;41674;52.290;-1.474;2023-02-12T05:30:04;103136.66;;;9.52;69.81
55755;BME280;41674;52.290;-1.474;2023-02-12T05:32:38;103135.42;;;9.36;70.01
55755;BME280;41674;52.290;-1.474;2023-02-12T05:35:03;103137.14;;;9.40;70.16
55755;BME280;41674;52.290;-1.474;2023-02-12T05:37:33;103140.33;;;9.33;70.07
55755;BME280;41674;52.290;-1.474;2023-02-12T05:40:01;103132.97;;;9.72;69.10
55755;BME280;41674;52.290;-1.474;2023-02-12T05:42:30;103129.97;;;10.01;68.21
55755;BME280;41674;52.290;-1.474;2023-02-12T05:45:06;103131.41;;;10.02;67.95
55755;BME280;41674;52.290;-1.474;2023-02-12T05:47:30;103128.38;;;10.23;67.56
55755;BME280;41674;52.290;-1.474;2023-02-12T05:50:00;103123.94;;;9.82;68.01
55755;BME280;41674;52.290;-1.474;2023-02-12T05:52:28;103123.54;;;10.39;66.92
55755;BME280;41674;52.290;-1.474;2023-02-12T05:54:57;103123.87;;;9.94;67.03
55755;BME280;41674;52.290;-1.474;2023-02-12T05:57:27;103120.76;;;9.66;68.23
55755;BME280;41674;52.290;-1.474;2023-02-12T05:59:56;103122.26;;;9.76;66.97
55755;BME280;41674;52.290;-1.474;2023-02-12T06:02:26;103123.66;;;9.96;66.63
55755;BME280;41674;52.290;-1.474;2023-02-12T06:04:55;103122.36;;;10.26;66.31
55755;BME280;41674;52.290;-1.474;2023-02-12T06:07:29;103118.30;;;10.32;66.07
55755;BME280;41674;52.290;-1.474;2023-02-12T06:09:54;103123.09;;;9.92;65.77
55755;BME280;41674;52.290;-1.474;2023-02-12T06:12:24;103135.37;;;5.76;80.90
55755;BME280;41674;52.290;-1.474;2023-02-12T06:14:59;103130.07;;;8.72;71.12
55755;BME280;41674;52.290;-1.474;2023-02-12T06:17:28;103123.96;;;9.46;67.75
55755;BME280;41674;52.290;-1.474;2023-02-12T06:19:53;103121.57;;;9.85;67.53
55755;BME280;41674;52.290;-1.474;2023-02-12T06:22:23;103120.56;;;9.50;68.10
55755;BME280;41674;52.290;-1.474;2023-02-12T06:24:52;103126.50;;;8.45;70.25
55755;BME280;41674;52.290;-1.474;2023-02-12T06:27:21;103120.77;;;9.58;68.36
55755;BME280;41674;52.290;-1.474;2023-02-12T06:29:51;103111.00;;;9.74;67.91
55755;BME280;41674;52.290;-1.474;2023-02-12T06:32:20;103108.68;;;9.74;67.96
55755;BME280;41674;52.290;-1.474;2023-02-12T06:34:54;103117.34;;;8.59;69.76
55755;BME280;41674;52.290;-1.474;2023-02-12T06:37:18;103113.59;;;9.54;68.63
55755;BME280;41674;52.290;-1.474;2023-02-12T06:39:47;103113.53;;;9.68;68.34
55755;BME280;41674;52.290;-1.474;2023-02-12T06:42:17;103111.81;;;9.80;68.19
55755;BME280;41674;52.290;-1.474;2023-02-12T06:44:46;103112.19;;;9.80;68.30
55755;BME280;41674;52.290;-1.474;2023-02-12T06:47:16;103114.00;;;9.45;68.34
55755;BME280;41674;52.290;-1.474;2023-02-12T06:49:45;103115.85;;;8.12;72.28
55755;BME280;41674;52.290;-1.474;2023-02-12T06:52:15;103118.11;;;8.96;70.78
55755;BME280;41674;52.290;-1.474;2023-02-12T06:54:44;103120.01;;;8.96;70.03
55755;BME280;41674;52.290;-1.474;2023-02-12T06:57:13;103119.71;;;9.16;69.40
55755;BME280;41674;52.290;-1.474;2023-02-12T06:59:43;103113.84;;;9.32;68.96
55755;BME280;41674;52.290;-1.474;2023-02-12T07:02:19;103117.27;;;9.27;69.31
55755;BME280;41674;52.290;-1.474;2023-02-12T07:04:42;103122.79;;;8.72;70.90
55755;BME280;41674;52.290;-1.474;2023-02-12T07:07:12;103126.05;;;8.68;71.14
55755;BME280;41674;52.290;-1.474;2023-02-12T07:09:42;103130.02;;;8.90;71.51
55755;BME280;41674;52.290;-1.474;2023-02-12T07:12:11;103130.58;;;9.22;70.52
55755;BME280;41674;52.290;-1.474;2023-02-12T07:14:41;103132.05;;;9.24;70.82
55755;BME280;41674;52.290;-1.474;2023-02-12T07:17:10;103134.60;;;9.27;70.89
55755;BME280;41674;52.290;-1.474;2023-02-12T07:19:40;103131.43;;;9.36;70.71
55755;BME280;41674;52.290;-1.474;2023-02-12T07:22:09;103134.31;;;9.36;70.24
55755;BME280;41674;52.290;-1.474;2023-02-12T07:24:39;103139.71;;;9.32;70.19
55755;BME280;41674;52.290;-1.474;2023-02-12T07:27:08;103141.55;;;9.07;70.96
55755;BME280;41674;52.290;-1.474;2023-02-12T07:29:37;103143.13;;;9.27;70.05
55755;BME280;41674;52.290;-1.474;2023-02-12T07:32:07;103147.11;;;9.42;69.57
55755;BME280;41674;52.290;-1.474;2023-02-12T07:34:36;103149.09;;;9.37;69.83
55755;BME280;41674;52.290;-1.474;2023-02-12T07:37:05;103151.86;;;9.49;69.71
55755;BME280;41674;52.290;-1.474;2023-02-12T07:39:35;103156.48;;;9.33;69.94
55755;BME280;41674;52.290;-1.474;2023-02-12T07:42:04;103157.27;;;9.52;69.67
55755;BME280;41674;52.290;-1.474;2023-02-12T07:44:33;103161.21;;;9.29;69.82
55755;BME280;41674;52.290;-1.474;2023-02-12T07:47:03;103160.02;;;9.49;70.16
55755;BME280;41674;52.290;-1.474;2023-02-12T07:49:33;103164.12;;;9.49;70.40
55755;BME280;41674;52.290;-1.474;2023-02-12T07:52:03;103161.69;;;9.39;70.67
55755;BME280;41674;52.290;-1.474;2023-02-12T07:54:31;103160.38;;;9.33;70.32
55755;BME280;41674;52.290;-1.474;2023-02-12T07:57:00;103157.98;;;9.34;69.83
55755;BME280;41674;52.290;-1.474;2023-02-12T07:59:30;103161.35;;;8.96;69.51
55755;BME280;41674;52.290;-1.474;2023-02-12T08:01:59;103164.08;;;9.49;69.24
55755;BME280;41674;52.290;-1.474;2023-02-12T08:04:28;103164.51;;;9.35;69.18
55755;BME280;41674;52.290;-1.474;2023-02-12T08:06:58;103166.59;;;9.64;69.26
55755;BME280;41674;52.290;-1.474;2023-02-12T08:09:29;103170.29;;;9.66;69.24
55755;BME280;41674;52.290;-1.474;2023-02-12T08:11:57;103166.95;;;9.76;68.80
55755;BME280;41674;52.290;-1.474;2023-02-12T08:14:27;103163.35;;;9.85;68.51
55755;BME280;41674;52.290;-1.474;2023-02-12T08:16:55;103167.03;;;9.67;68.53
55755;BME280;41674;52.290;-1.474;2023-02-12T08:19:30;103164.14;;;9.79;69.07
55755;BME280;41674;52.290;-1.474;2023-02-12T08:21:55;103168.70;;;9.37;69.25
55755;BME280;41674;52.290;-1.474;2023-02-12T08:24:29;103166.40;;;9.49;68.24
55755;BME280;41674;52.290;-1.474;2023-02-12T08:26:54;103169.22;;;9.62;67.86
55755;BME280;41674;52.290;-1.474;2023-02-12T08:29:25;103173.46;;;9.47;66.82
55755;BME280;41674;52.290;-1.474;2023-02-12T08:31:55;103173.21;;;9.24;66.66
55755;BME280;41674;52.290;-1.474;2023-02-12T08:34:23;103171.59;;;9.66;65.99
55755;BME280;41674;52.290;-1.474;2023-02-12T08:36:53;103170.69;;;9.92;65.78
55755;BME280;41674;52.290;-1.474;2023-02-12T08:39:23;103168.60;;;9.97;65.45
55755;BME280;41674;52.290;-1.474;2023-02-12T08:41:50;103171.13;;;9.54;66.37
55755;BME280;41674;52.290;-1.474;2023-02-12T08:44:19;103172.46;;;10.09;65.13
55755;BME280;41674;52.290;-1.474;2023-02-12T08:46:50;103174.00;;;9.86;64.60
55755;BME280;41674;52.290;-1.474;2023-02-12T08:49:20;103175.32;;;10.22;64.55
55755;BME280;41674;52.290;-1.474;2023-02-12T08:51:50;103173.50;;;9.84;64.41
55755;BME280;41674;52.290;-1.474;2023-02-12T08:54:24;103175.07;;;9.95;64.11
55755;BME280;41674;52.290;-1.474;2023-02-12T08:56:47;103173.77;;;9.93;63.70
55755;BME280;41674;52.290;-1.474;2023-02-12T08:59:17;103172.81;;;10.36;62.90
55755;BME280;41674;52.290;-1.474;2023-02-12T09:01:49;103171.27;;;10.67;61.87
55755;BME280;41674;52.290;-1.474;2023-02-12T09:04:16;103176.12;;;10.69;60.98
55755;BME280;41674;52.290;-1.474;2023-02-12T09:06:44;103175.06;;;10.76;60.60
55755;BME280;41674;52.290;-1.474;2023-02-12T09:09:14;103171.41;;;11.29;60.02
55755;BME280;41674;52.290;-1.474;2023-02-12T09:11:43;103172.92;;;11.40;59.77
55755;BME280;41674;52.290;-1.474;2023-02-12T09:14:14;103173.99;;;11.34;59.82
55755;BME280;41674;52.290;-1.474;2023-02-12T09:16:42;103172.28;;;11.43;59.83
55755;BME280;41674;52.290;-1.474;2023-02-12T09:19:12;103169.21;;;11.33;60.02
55755;BME280;41674;52.290;-1.474;2023-02-12T09:21:41;103169.94;;;10.64;60.73
55755;BME280;41674;52.290;-1.474;2023-02-12T09:24:10;103171.29;;;10.28;61.83
55755;BME280;41674;52.290;-1.474;2023-02-12T09:26:40;103172.92;;;10.10;61.30
55755;BME280;41674;52.290;-1.474;2023-02-12T09:29:09;103170.41;;;10.81;60.04
55755;BME280;41674;52.290;-1.474;2023-02-12T09:31:39;103165.18;;;11.14;59.08
55755;BME280;41674;52.290;-1.474;2023-02-12T09:34:08;103165.04;;;10.89;58.67
55755;BME280;41674;52.290;-1.474;2023-02-12T09:36:37;103162.73;;;10.50;60.14
55755;BME280;41674;52.290;-1.474;2023-02-12T09:39:12;103158.40;;;10.16;59.32
55755;BME280;41674;52.290;-1.474;2023-02-12T09:41:49;103156.20;;;9.53;60.94
55755;BME280;41674;52.290;-1.474;2023-02-12T09:44:10;103156.77;;;10.53;59.77
55755;BME280;41674;52.290;-1.474;2023-02-12T09:46:39;103158.64;;;10.63;59.65
55755;BME280;41674;52.290;-1.474;2023-02-12T09:49:08;103159.04;;;9.88;60.28
55755;BME280;41674;52.290;-1.474;2023-02-12T09:51:33;103158.30;;;10.27;57.76
55755;BME280;41674;52.290;-1.474;2023-02-12T09:54:04;103161.52;;;10.37;58.03
55755;BME280;41674;52.290;-1.474;2023-02-12T09:56:34;103160.57;;;9.94;58.81
55755;BME280;41674;52.290;-1.474;2023-02-12T09:59:05;103154.94;;;11.06;57.56
55755;BME280;41674;52.290;-1.474;2023-02-12T10:01:31;103154.10;;;10.86;57.66
55755;BME280;41674;52.290;-1.474;2023-02-12T10:04:01;103151.08;;;10.35;59.15
55755;BME280;41674;52.290;-1.474;2023-02-12T10:06:34;103151.24;;;10.81;58.78
55755;BME280;41674;52.290;-1.474;2023-02-12T10:09:06;103146.92;;;10.82;57.26
55755;BME280;41674;52.290;-1.474;2023-02-12T10:11:41;103146.55;;;10.69;58.13
55755;BME280;41674;52.290;-1.474;2023-02-12T10:14:07;103150.11;;;10.95;57.13
55755;BME280;41674;52.290;-1.474;2023-02-12T10:16:38;103146.10;;;11.38;56.27
55755;BME280;41674;52.290;-1.474;2023-02-12T10:19:10;103146.77;;;10.98;57.16
55755;BME280;41674;52.290;-1.474;2023-02-12T10:21:38;103153.44;;;10.16;58.92
55755;BME280;41674;52.290;-1.474;2023-02-12T10:24:06;103158.75;;;9.10;61.51
55755;BME280;41674;52.290;-1.474;2023-02-12T10:26:28;103163.51;;;9.30;60.89
55755;BME280;41674;52.290;-1.474;2023-02-12T10:28:53;103165.02;;;9.14;63.24
55755;BME280;41674;52.290;-1.474;2023-02-12T10:31:28;103165.49;;;9.08;62.81
55755;BME280;41674;52.290;-1.474;2023-02-12T10:33:52;103163.85;;;9.97;59.86
55755;BME280;41674;52.290;-1.474;2023-02-12T10:36:31;103162.13;;;10.28;58.83
55755;BME280;41674;52.290;-1.474;2023-02-12T10:38:56;103157.81;;;10.55;58.67
55755;BME280;41674;52.290;-1.474;2023-02-12T10:41:21;103155.93;;;10.28;58.88
55755;BME280;41674;52.290;-1.474;2023-02-12T10:43:49;103161.65;;;10.30;58.88
55755;BME280;41674;52.290;-1.474;2023-02-12T10:46:18;103162.94;;;10.14;58.60
55755;BME280;41674;52.290;-1.474;2023-02-12T10:48:52;103169.15;;;9.09;62.45
55755;BME280;41674;52.290;-1.474;2023-02-12T10:53:47;103166.05;;;9.50;61.14
55755;BME280;41674;52.290;-1.474;2023-02-12T10:56:20;103163.40;;;8.31;64.81
55755;BME280;41674;52.290;-1.474;2023-02-12T10:58:53;103151.74;;;9.91;60.22
55755;BME280;41674;52.290;-1.474;2023-02-12T11:01:19;103156.48;;;9.50;60.51
55755;BME280;41674;52.290;-1.474;2023-02-12T11:03:51;103162.88;;;9.31;60.69
55755;BME280;41674;52.290;-1.474;2023-02-12T11:06:18;103166.86;;;8.75;63.87
55755;BME280;41674;52.290;-1.474;2023-02-12T11:08:45;103162.37;;;9.16;61.95
55755;BME280;41674;52.290;-1.474;2023-02-12T11:11:19;103167.86;;;9.21;61.68
55755;BME280;41674;52.290;-1.474;2023-02-12T11:13:46;103163.03;;;9.26;62.50
55755;BME280;41674;52.290;-1.474;2023-02-12T11:16:13;103163.79;;;9.06;62.91
55755;BME280;41674;52.290;-1.474;2023-02-12T11:18:42;103157.47;;;9.81;60.73
55755;BME280;41674;52.290;-1.474;2023-02-12T11:21:12;103162.87;;;9.43;61.29
55755;BME280;41674;52.290;-1.474;2023-02-12T11:23:42;103161.45;;;9.65;61.13
55755;BME280;41674;52.290;-1.474;2023-02-12T11:26:22;103163.23;;;9.27;61.57
55755;BME280;41674;52.290;-1.474;2023-02-12T11:31:19;103160.76;;;8.54;63.18
55755;BME280;41674;52.290;-1.474;2023-02-12T11:33:39;103157.09;;;8.46;63.74
55755;BME280;41674;52.290;-1.474;2023-02-12T11:36:14;103161.52;;;9.25;62.51
55755;BME280;41674;52.290;-1.474;2023-02-12T11:38:39;103157.51;;;9.30;63.06
55755;BME280;41674;52.290;-1.474;2023-02-12T11:41:18;103156.46;;;9.25;62.30
55755;BME280;41674;52.290;-1.474;2023-02-12T11:43:42;103150.63;;;8.54;63.85
55755;BME280;41674;52.290;-1.474;2023-02-12T11:46:06;103153.35;;;8.59;63.71
55755;BME280;41674;52.290;-1.474;2023-02-12T11:48:38;103150.84;;;7.81;67.10
55755;BME280;41674;52.290;-1.474;2023-02-12T11:51:07;103146.93;;;7.94;66.00
55755;BME280;41674;52.290;-1.474;2023-02-12T11:53:37;103145.13;;;8.79;63.50
55755;BME280;41674;52.290;-1.474;2023-02-12T11:56:06;103140.46;;;9.63;62.34
55755;BME280;41674;52.290;-1.474;2023-02-12T11:58:34;103138.89;;;9.50;62.13
55755;BME280;41674;52.290;-1.474;2023-02-12T12:01:11;103138.65;;;9.51;63.42
55755;BME280;41674;52.290;-1.474;2023-02-12T12:03:38;103134.58;;;9.15;61.96
55755;BME280;41674;52.290;-1.474;2023-02-12T12:06:11;103133.09;;;9.38;62.51
55755;BME280;41674;52.290;-1.474;2023-02-12T12:08:39;103132.13;;;8.90;63.05
55755;BME280;41674;52.290;-1.474;2023-02-12T12:11:09;103128.26;;;8.12;66.28
55755;BME280;41674;52.290;-1.474;2023-02-12T12:13:34;103126.61;;;6.62;70.17
55755;BME280;41674;52.290;-1.474;2023-02-12T12:16:08;103123.64;;;8.14;68.03
55755;BME280;41674;52.290;-1.474;2023-02-12T12:18:34;103118.71;;;8.20;66.15
55755;BME280;41674;52.290;-1.474;2023-02-12T12:21:06;103118.83;;;8.03;66.20
55755;BME280;41674;52.290;-1.474;2023-02-12T12:23:34;103120.90;;;8.41;67.45
55755;BME280;41674;52.290;-1.474;2023-02-12T12:26:05;103112.67;;;9.06;63.47
55755;BME280;41674;52.290;-1.474;2023-02-12T12:28:34;103110.69;;;8.76;64.68
55755;BME280;41674;52.290;-1.474;2023-02-12T12:31:04;103101.73;;;9.99;62.16
55755;BME280;41674;52.290;-1.474;2023-02-12T12:33:34;103103.47;;;8.69;63.87
55755;BME280;41674;52.290;-1.474;2023-02-12T12:36:06;103095.43;;;9.38;61.98
55755;BME280;41674;52.290;-1.474;2023-02-12T12:38:33;103091.33;;;9.11;63.00
55755;BME280;41674;52.290;-1.474;2023-02-12T12:41:01;103091.85;;;9.04;62.27
55755;BME280;41674;52.290;-1.474;2023-02-12T12:43:33;103091.94;;;8.33;62.91
55755;BME280;41674;52.290;-1.474;2023-02-12T12:46:15;103090.72;;;8.90;63.22
55755;BME280;41674;52.290;-1.474;2023-02-12T12:48:32;103082.35;;;8.64;64.52
55755;BME280;41674;52.290;-1.474;2023-02-12T12:51:03;103078.60;;;9.06;64.03
55755;BME280;41674;52.290;-1.474;2023-02-12T12:53:31;103074.28;;;7.57;68.49
55755;BME280;41674;52.290;-1.474;2023-02-12T12:56:03;103069.45;;;9.04;64.64
55755;BME280;41674;52.290;-1.474;2023-02-12T12:58:31;103067.28;;;7.82;68.38
55755;BME280;41674;52.290;-1.474;2023-02-12T13:01:05;103063.35;;;7.85;66.95
55755;BME280;41674;52.290;-1.474;2023-02-12T13:03:37;103059.52;;;7.24;69.08
55755;BME280;41674;52.290;-1.474;2023-02-12T13:05:57;103066.68;;;6.95;70.93
55755;BME280;41674;52.290;-1.474;2023-02-12T13:08:32;103072.49;;;6.39;75.80
55755;BME280;41674;52.290;-1.474;2023-02-12T13:10:50;103060.20;;;8.18;69.89